sensor_id;sensor_type;location;lat;lon;timestamp;pressure;altitude;pressure_sealevel;temperature;humidity
70343;BME280;57767;42.068;24.752;2023-05-01T00:00:49;98806.38;;;13.95;62.34
70343;BME280;57767;42.068;24.752;2023-05-01T00:01:51;98799.78;;;13.97;62.07
70343;BME280;57767;42.068;24.752;2023-05-01T00:02:52;98798.88;;;14.04;61.87
70343;BME280;57767;42.068;24.752;2023-05-01T00:03:55;98812.47;;;14.07;61.61
70343;BME280;57767;42.068;24.752;2023-05-01T00:04:57;98804.78;;;14.06;61.62
70343;BME280;57767;42.068;24.752;2023-05-01T00:06:00;98798.88;;;14.04;61.34
70343;BME280;57767;42.068;24.752;2023-05-01T00:07:02;98804.06;;;14.10;61.50
70343;BME280;57767;42.068;24.752;2023-05-01T00:08:04;98810.88;;;14.06;62.22
70343;BME280;57767;42.068;24.752;2023-05-01T00:09:05;98811.13;;;14.05;63.40
70343;BME280;57767;42.068;24.752;2023-05-01T00:10:07;98811.66;;;14.07;63.50
70343;BME280;57767;42.068;24.752;2023-05-01T00:11:09;98810.88;;;14.06;63.84
70343;BME280;57767;42.068;24.752;2023-05-01T00:12:13;98809.97;;;14.01;64.18
70343;BME280;57767;42.068;24.752;2023-05-01T00:13:15;98815.25;;;14.01;64.60
70343;BME280;57767;42.068;24.752;2023-05-01T00:14:18;98814.47;;;14.00;64.98
70343;BME280;57767;42.068;24.752;2023-05-01T00:15:20;98813.66;;;13.99;65.24
70343;BME280;57767;42.068;24.752;2023-05-01T00:16:21;98812.63;;;14.01;65.15
70343;BME280;57767;42.068;24.752;2023-05-01T00:17:24;98818.59;;;13.96;66.01
70343;BME280;57767;42.068;24.752;2023-05-01T00:18:25;98812.16;;;13.80;66.81
70343;BME280;57767;42.068;24.752;2023-05-01T00:19:27;98811.66;;;13.60;67.63
70343;BME280;57767;42.068;24.752;2023-05-01T00:20:29;98799.59;;;13.34;68.45
70343;BME280;57767;42.068;24.752;2023-05-01T00:21:31;98810.09;;;13.29;69.10
70343;BME280;57767;42.068;24.752;2023-05-01T00:22:33;98814.53;;;13.17;69.64
70343;BME280;57767;42.068;24.752;2023-05-01T00:23:35;98815.19;;;13.12;70.32
70343;BME280;57767;42.068;24.752;2023-05-01T00:24:36;98814.16;;;12.95;70.73
70343;BME280;57767;42.068;24.752;2023-05-01T00:25:38;98815.38;;;12.81;71.31
70343;BME280;57767;42.068;24.752;2023-05-01T00:26:40;98818.44;;;12.66;72.00
70343;BME280;57767;42.068;24.752;2023-05-01T00:27:42;98801.34;;;12.44;72.41
70343;BME280;57767;42.068;24.752;2023-05-01T00:28:43;98815.41;;;12.44;73.11
70343;BME280;57767;42.068;24.752;2023-05-01T00:29:45;98817.97;;;12.33;73.24
70343;BME280;57767;42.068;24.752;2023-05-01T00:30:47;98815.69;;;12.36;73.90
70343;BME280;57767;42.068;24.752;2023-05-01T00:31:49;98816.50;;;12.37;74.01
70343;BME280;57767;42.068;24.752;2023-05-01T00:32:51;98815.19;;;12.28;73.68
70343;BME280;57767;42.068;24.752;2023-05-01T00:33:53;98809.09;;;12.27;73.77
70343;BME280;57767;42.068;24.752;2023-05-01T00:34:54;98813.06;;;12.36;73.53
70343;BME280;57767;42.068;24.752;2023-05-01T00:35:58;98813.19;;;12.41;73.92
70343;BME280;57767;42.068;24.752;2023-05-01T00:37:00;98812.63;;;12.39;73.82
70343;BME280;57767;42.068;24.752;2023-05-01T00:38:02;98804.47;;;12.41;73.57
70343;BME280;57767;42.068;24.752;2023-05-01T00:39:03;98815.69;;;12.54;73.45
70343;BME280;57767;42.068;24.752;2023-05-01T00:40:07;98816.97;;;12.52;73.05
70343;BME280;57767;42.068;24.752;2023-05-01T00:41:09;98815.56;;;12.49;73.02
70343;BME280;57767;42.068;24.752;2023-05-01T00:42:10;98803.13;;;12.50;72.95
70343;BME280;57767;42.068;24.752;2023-05-01T00:43:12;98815.19;;;12.64;72.57
70343;BME280;57767;42.068;24.752;2023-05-01T00:44:14;98813.56;;;12.63;72.98
70343;BME280;57767;42.068;24.752;2023-05-01T00:45:17;98805.69;;;12.56;72.80
70343;BME280;57767;42.068;24.752;2023-05-01T00:46:19;98809.09;;;12.64;72.43
70343;BME280;57767;42.068;24.752;2023-05-01T00:47:21;98804.38;;;12.66;72.26
70343;BME280;57767;42.068;24.752;2023-05-01T00:48:23;98812.16;;;12.79;72.09
70343;BME280;57767;42.068;24.752;2023-05-01T00:49:26;98810.28;;;12.79;72.44
70343;BME280;57767;42.068;24.752;2023-05-01T00:50:28;98805.91;;;12.73;72.00
70343;BME280;57767;42.068;24.752;2023-05-01T00:51:30;98807.09;;;12.77;71.45
70343;BME280;57767;42.068;24.752;2023-05-01T00:52:32;98808.81;;;12.83;71.70
70343;BME280;57767;42.068;24.752;2023-05-01T00:53:34;98805.63;;;12.93;71.93
70343;BME280;57767;42.068;24.752;2023-05-01T00:54:36;98809.31;;;12.92;71.80
70343;BME280;57767;42.068;24.752;2023-05-01T00:55:40;98805.41;;;12.95;71.13
70343;BME280;57767;42.068;24.752;2023-05-01T00:56:43;98806.97;;;13.02;70.44
70343;BME280;57767;42.068;24.752;2023-05-01T00:57:45;98809.06;;;13.12;70.22
70343;BME280;57767;42.068;24.752;2023-05-01T00:58:49;98808.44;;;13.16;69.34
70343;BME280;57767;42.068;24.752;2023-05-01T00:59:54;98807.28;;;13.24;68.73
70343;BME280;57767;42.068;24.752;2023-05-01T01:00:56;98808.34;;;13.35;67.03
70343;BME280;57767;42.068;24.752;2023-05-01T01:01:58;98810.94;;;13.41;66.93
70343;BME280;57767;42.068;24.752;2023-05-01T01:03:00;98804.91;;;13.46;66.53
70343;BME280;57767;42.068;24.752;2023-05-01T01:04:03;98813.81;;;13.51;65.63
70343;BME280;57767;42.068;24.752;2023-05-01T01:05:05;98801.38;;;13.52;65.51
70343;BME280;57767;42.068;24.752;2023-05-01T01:07:47;98813.03;;;13.62;64.98
70343;BME280;57767;42.068;24.752;2023-05-01T01:09:03;98814.66;;;13.63;64.51
70343;BME280;57767;42.068;24.752;2023-05-01T01:10:17;98807.28;;;13.66;64.09
70343;BME280;57767;42.068;24.752;2023-05-01T01:16:23;98812.81;;;13.76;62.94
70343;BME280;57767;42.068;24.752;2023-05-01T01:19:01;98818.50;;;13.79;62.46
70343;BME280;57767;42.068;24.752;2023-05-01T01:21:30;98820.13;;;13.80;62.52
70343;BME280;57767;42.068;24.752;2023-05-01T01:22:34;98801.41;;;13.75;62.58
70343;BME280;57767;42.068;24.752;2023-05-01T01:24:45;98811.44;;;13.85;62.30
70343;BME280;57767;42.068;24.752;2023-05-01T01:29:02;98801.53;;;13.80;61.44
70343;BME280;57767;42.068;24.752;2023-05-01T01:30:32;98818.16;;;13.87;61.41
70343;BME280;57767;42.068;24.752;2023-05-01T01:34:18;98821.16;;;13.91;61.32
70343;BME280;57767;42.068;24.752;2023-05-01T01:35:25;98818.28;;;13.92;61.17
70343;BME280;57767;42.068;24.752;2023-05-01T01:36:38;98819.88;;;13.93;60.84
70343;BME280;57767;42.068;24.752;2023-05-01T01:38:03;98820.66;;;13.94;60.93
70343;BME280;57767;42.068;24.752;2023-05-01T01:39:24;98823.09;;;13.95;60.75
70343;BME280;57767;42.068;24.752;2023-05-01T01:40:42;98806.50;;;13.88;60.90
70343;BME280;57767;42.068;24.752;2023-05-01T01:41:49;98808.91;;;13.90;61.14
70343;BME280;57767;42.068;24.752;2023-05-01T01:42:57;98813.41;;;13.89;60.92
70343;BME280;57767;42.068;24.752;2023-05-01T01:44:27;98815.94;;;13.96;60.68
70343;BME280;57767;42.068;24.752;2023-05-01T01:45:33;98798.16;;;13.85;60.73
70343;BME280;57767;42.068;24.752;2023-05-01T01:46:38;98817.47;;;13.92;60.80
70343;BME280;57767;42.068;24.752;2023-05-01T01:47:43;98811.34;;;13.91;60.71
70343;BME280;57767;42.068;24.752;2023-05-01T01:48:48;98817.69;;;13.90;60.85
70343;BME280;57767;42.068;24.752;2023-05-01T01:49:51;98817.09;;;13.88;60.69
70343;BME280;57767;42.068;24.752;2023-05-01T01:50:57;98813.19;;;13.91;60.51
70343;BME280;57767;42.068;24.752;2023-05-01T01:52:01;98809.72;;;13.90;60.25
70343;BME280;57767;42.068;24.752;2023-05-01T01:53:05;98814.00;;;13.91;60.09
70343;BME280;57767;42.068;24.752;2023-05-01T01:54:10;98811.81;;;13.88;60.04
70343;BME280;57767;42.068;24.752;2023-05-01T01:55:14;98817.69;;;13.90;60.06
70343;BME280;57767;42.068;24.752;2023-05-01T01:56:18;98801.06;;;13.83;60.31
70343;BME280;57767;42.068;24.752;2023-05-01T01:57:22;98822.78;;;13.92;60.27
70343;BME280;57767;42.068;24.752;2023-05-01T01:58:26;98812.97;;;13.92;59.91
70343;BME280;57767;42.068;24.752;2023-05-01T01:59:31;98814.00;;;13.91;59.90
70343;BME280;57767;42.068;24.752;2023-05-01T02:00:34;98813.19;;;13.91;59.67
70343;BME280;57767;42.068;24.752;2023-05-01T02:01:38;98809.97;;;13.89;59.45
70343;BME280;57767;42.068;24.752;2023-05-01T02:02:43;98820.34;;;13.90;59.09
70343;BME280;57767;42.068;24.752;2023-05-01T02:03:46;98817.09;;;13.88;59.25
70343;BME280;57767;42.068;24.752;2023-05-01T02:04:49;98826.47;;;13.91;59.43
70343;BME280;57767;42.068;24.752;2023-05-01T02:05:54;98811.91;;;13.82;59.60
70343;BME280;57767;42.068;24.752;2023-05-01T02:06:58;98818.72;;;13.89;59.11
70343;BME280;57767;42.068;24.752;2023-05-01T02:08:03;98821.59;;;13.88;59.04
70343;BME280;57767;42.068;24.752;2023-05-01T02:09:07;98829.34;;;13.89;58.92
70343;BME280;57767;42.068;24.752;2023-05-01T02:10:12;98810.28;;;13.81;58.99
70343;BME280;57767;42.068;24.752;2023-05-01T02:11:17;98834.88;;;13.88;58.99
70343;BME280;57767;42.068;24.752;2023-05-01T02:12:19;98834.06;;;13.87;58.97
70343;BME280;57767;42.068;24.752;2023-05-01T02:13:23;98839.16;;;13.89;58.66
70343;BME280;57767;42.068;24.752;2023-05-01T02:14:25;98838.44;;;13.82;59.14
70343;BME280;57767;42.068;24.752;2023-05-01T02:15:29;98838.69;;;13.80;59.31
70343;BME280;57767;42.068;24.752;2023-05-01T02:16:32;98846.28;;;13.77;60.01
70343;BME280;57767;42.068;24.752;2023-05-01T02:17:37;98846.97;;;13.72;61.38
70343;BME280;57767;42.068;24.752;2023-05-01T02:18:40;98839.91;;;13.54;62.66
70343;BME280;57767;42.068;24.752;2023-05-01T02:19:44;98845.69;;;13.33;63.52
70343;BME280;57767;42.068;24.752;2023-05-01T02:20:46;98848.47;;;13.08;64.72
70343;BME280;57767;42.068;24.752;2023-05-01T02:21:49;98847.16;;;12.81;65.58
70343;BME280;57767;42.068;24.752;2023-05-01T02:22:53;98850.84;;;12.43;67.51
70343;BME280;57767;42.068;24.752;2023-05-01T02:23:59;98856.34;;;12.24;68.10
70343;BME280;57767;42.068;24.752;2023-05-01T02:25:02;98862.59;;;12.11;68.46
70343;BME280;57767;42.068;24.752;2023-05-01T02:26:05;98864.25;;;12.05;69.76
70343;BME280;57767;42.068;24.752;2023-05-01T02:27:15;98861.91;;;11.91;70.39
70343;BME280;57767;42.068;24.752;2023-05-01T02:28:21;98857.16;;;11.74;71.73
70343;BME280;57767;42.068;24.752;2023-05-01T02:29:23;98858.47;;;11.59;72.02
70343;BME280;57767;42.068;24.752;2023-05-01T02:30:26;98856.25;;;11.56;72.72
70343;BME280;57767;42.068;24.752;2023-05-01T02:31:27;98860.03;;;11.66;72.39
70343;BME280;57767;42.068;24.752;2023-05-01T02:32:30;98862.44;;;11.74;72.19
70343;BME280;57767;42.068;24.752;2023-05-01T02:33:32;98858.81;;;11.75;71.99
70343;BME280;57767;42.068;24.752;2023-05-01T02:34:34;98863.22;;;11.81;71.32
70343;BME280;57767;42.068;24.752;2023-05-01T02:35:43;98861.19;;;11.83;71.12
70343;BME280;57767;42.068;24.752;2023-05-01T02:36:45;98863.69;;;11.72;72.10
70343;BME280;57767;42.068;24.752;2023-05-01T02:37:47;98863.28;;;11.68;72.63
70343;BME280;57767;42.068;24.752;2023-05-01T02:38:49;98868.75;;;11.73;72.76
70343;BME280;57767;42.068;24.752;2023-05-01T02:39:51;98876.09;;;11.71;72.57
70343;BME280;57767;42.068;24.752;2023-05-01T02:40:55;98870.38;;;11.74;72.27
70343;BME280;57767;42.068;24.752;2023-05-01T02:41:59;98872.84;;;11.69;72.12
70343;BME280;57767;42.068;24.752;2023-05-01T02:43:07;98869.19;;;11.70;72.37
70343;BME280;57767;42.068;24.752;2023-05-01T02:44:10;98868.38;;;11.76;71.80
70343;BME280;57767;42.068;24.752;2023-05-01T02:45:20;98856.75;;;11.71;71.61
70343;BME280;57767;42.068;24.752;2023-05-01T02:46:24;98871.97;;;11.82;71.60
70343;BME280;57767;42.068;24.752;2023-05-01T02:47:29;98865.72;;;11.76;71.67
70343;BME280;57767;42.068;24.752;2023-05-01T02:48:33;98867.50;;;11.82;71.71
70343;BME280;57767;42.068;24.752;2023-05-01T02:49:36;98869.13;;;11.83;71.58
70343;BME280;57767;42.068;24.752;2023-05-01T02:50:39;98867.16;;;11.66;72.72
70343;BME280;57767;42.068;24.752;2023-05-01T02:51:43;98861.00;;;11.47;73.74
70343;BME280;57767;42.068;24.752;2023-05-01T02:52:46;98828.41;;;11.22;74.22
70343;BME280;57767;42.068;24.752;2023-05-01T02:53:48;98857.81;;;11.38;74.46
70343;BME280;57767;42.068;24.752;2023-05-01T02:54:50;98859.38;;;11.46;74.37
70343;BME280;57767;42.068;24.752;2023-05-01T02:55:52;98850.59;;;11.52;74.48
70343;BME280;57767;42.068;24.752;2023-05-01T02:56:54;98849.34;;;11.55;73.61
70343;BME280;57767;42.068;24.752;2023-05-01T02:57:59;98862.53;;;11.61;73.92
70343;BME280;57767;42.068;24.752;2023-05-01T02:59:01;98862.69;;;11.66;73.65
70343;BME280;57767;42.068;24.752;2023-05-01T03:00:03;98860.63;;;11.68;72.72
70343;BME280;57767;42.068;24.752;2023-05-01T03:01:05;98860.22;;;11.71;72.23
70343;BME280;57767;42.068;24.752;2023-05-01T03:02:07;98869.38;;;11.75;71.94
70343;BME280;57767;42.068;24.752;2023-05-01T03:03:10;98870.56;;;11.79;72.09
70343;BME280;57767;42.068;24.752;2023-05-01T03:04:12;98868.50;;;11.81;71.82
70343;BME280;57767;42.068;24.752;2023-05-01T03:05:14;98862.41;;;11.81;71.75
70343;BME280;57767;42.068;24.752;2023-05-01T03:06:16;98870.13;;;11.82;71.92
70343;BME280;57767;42.068;24.752;2023-05-01T03:07:19;98868.31;;;11.83;71.68
70343;BME280;57767;42.068;24.752;2023-05-01T03:08:21;98869.31;;;11.82;72.00
70343;BME280;57767;42.068;24.752;2023-05-01T03:09:23;98871.38;;;11.80;71.40
70343;BME280;57767;42.068;24.752;2023-05-01T03:10:25;98863.06;;;11.76;71.31
70343;BME280;57767;42.068;24.752;2023-05-01T03:11:27;98873.19;;;11.79;71.74
70343;BME280;57767;42.068;24.752;2023-05-01T03:12:29;98873.59;;;11.83;71.51
70343;BME280;57767;42.068;24.752;2023-05-01T03:13:32;98874.81;;;11.80;70.96
70343;BME280;57767;42.068;24.752;2023-05-01T03:14:34;98872.19;;;11.80;71.30
70343;BME280;57767;42.068;24.752;2023-05-01T03:15:36;98871.00;;;11.76;71.26
70343;BME280;57767;42.068;24.752;2023-05-01T03:16:38;98868.56;;;11.68;72.03
70343;BME280;57767;42.068;24.752;2023-05-01T03:17:42;98881.97;;;11.73;71.30
70343;BME280;57767;42.068;24.752;2023-05-01T03:18:43;98873.25;;;11.66;71.72
70343;BME280;57767;42.068;24.752;2023-05-01T03:19:45;98879.16;;;11.68;71.17
70343;BME280;57767;42.068;24.752;2023-05-01T03:20:51;98882.50;;;11.57;72.18
70343;BME280;57767;42.068;24.752;2023-05-01T03:21:54;98885.13;;;11.57;71.60
70343;BME280;57767;42.068;24.752;2023-05-01T03:22:56;98879.63;;;11.59;71.39
70343;BME280;57767;42.068;24.752;2023-05-01T03:23:57;98879.50;;;11.47;71.44
70343;BME280;57767;42.068;24.752;2023-05-01T03:24:59;98876.59;;;11.24;72.04
70343;BME280;57767;42.068;24.752;2023-05-01T03:26:01;98877.84;;;11.14;72.18
70343;BME280;57767;42.068;24.752;2023-05-01T03:27:03;98878.28;;;11.05;73.49
70343;BME280;57767;42.068;24.752;2023-05-01T03:28:05;98886.63;;;11.08;73.13
70343;BME280;57767;42.068;24.752;2023-05-01T03:29:07;98885.75;;;11.21;72.99
70343;BME280;57767;42.068;24.752;2023-05-01T03:30:10;98887.13;;;11.30;72.38
70343;BME280;57767;42.068;24.752;2023-05-01T03:31:13;98883.66;;;11.30;72.62
70343;BME280;57767;42.068;24.752;2023-05-01T03:32:15;98896.13;;;11.23;72.90
70343;BME280;57767;42.068;24.752;2023-05-01T03:33:18;98885.28;;;11.31;72.31
70343;BME280;57767;42.068;24.752;2023-05-01T03:34:20;98893.56;;;11.41;72.28
70343;BME280;57767;42.068;24.752;2023-05-01T03:35:22;98882.34;;;11.45;72.01
70343;BME280;57767;42.068;24.752;2023-05-01T03:36:24;98887.03;;;11.50;72.38
70343;BME280;57767;42.068;24.752;2023-05-01T03:37:27;98883.56;;;11.49;71.44
70343;BME280;57767;42.068;24.752;2023-05-01T03:38:29;98898.19;;;11.52;72.17
70343;BME280;57767;42.068;24.752;2023-05-01T03:39:31;98895.38;;;11.47;71.95
70343;BME280;57767;42.068;24.752;2023-05-01T03:40:33;98877.28;;;11.44;72.74
70343;BME280;57767;42.068;24.752;2023-05-01T03:41:34;98893.50;;;11.54;71.96
70343;BME280;57767;42.068;24.752;2023-05-01T03:42:36;98884.19;;;11.45;72.38
70343;BME280;57767;42.068;24.752;2023-05-01T03:43:38;98891.88;;;11.53;72.42
70343;BME280;57767;42.068;24.752;2023-05-01T03:44:40;98896.59;;;11.44;72.17
70343;BME280;57767;42.068;24.752;2023-05-01T03:45:42;98895.19;;;11.42;72.80
70343;BME280;57767;42.068;24.752;2023-05-01T03:46:45;98893.97;;;11.44;72.95
70343;BME280;57767;42.068;24.752;2023-05-01T03:47:47;98893.16;;;11.44;72.94
70343;BME280;57767;42.068;24.752;2023-05-01T03:48:49;98899.25;;;11.44;72.67
70343;BME280;57767;42.068;24.752;2023-05-01T03:49:50;98893.94;;;11.51;72.74
70343;BME280;57767;42.068;24.752;2023-05-01T03:50:52;98895.50;;;11.59;72.86
70343;BME280;57767;42.068;24.752;2023-05-01T03:51:54;98900.09;;;11.70;72.31
70343;BME280;57767;42.068;24.752;2023-05-01T03:52:56;98885.84;;;11.71;72.20
70343;BME280;57767;42.068;24.752;2023-05-01T03:53:58;98898.03;;;11.78;72.00
70343;BME280;57767;42.068;24.752;2023-05-01T03:55:00;98891.28;;;11.82;71.88
70343;BME280;57767;42.068;24.752;2023-05-01T03:56:02;98898.19;;;11.90;71.50
70343;BME280;57767;42.068;24.752;2023-05-01T03:57:05;98899.91;;;12.03;71.92
70343;BME280;57767;42.068;24.752;2023-05-01T03:58:07;98905.31;;;12.14;71.99
70343;BME280;57767;42.068;24.752;2023-05-01T03:59:08;98893.69;;;12.15;71.64
70343;BME280;57767;42.068;24.752;2023-05-01T04:00:11;98908.78;;;12.33;71.73
70343;BME280;57767;42.068;24.752;2023-05-01T04:01:13;98901.75;;;12.45;71.27
70343;BME280;57767;42.068;24.752;2023-05-01T04:02:14;98906.53;;;12.55;71.11
70343;BME280;57767;42.068;24.752;2023-05-01T04:03:17;98909.75;;;12.64;70.29
70343;BME280;57767;42.068;24.752;2023-05-01T04:04:19;98905.53;;;12.74;70.24
70343;BME280;57767;42.068;24.752;2023-05-01T04:05:21;98902.38;;;12.84;70.13
70343;BME280;57767;42.068;24.752;2023-05-01T04:06:22;98912.81;;;12.97;70.09
70343;BME280;57767;42.068;24.752;2023-05-01T04:07:24;98911.06;;;13.09;69.81
70343;BME280;57767;42.068;24.752;2023-05-01T04:08:26;98911.72;;;13.23;69.29
70343;BME280;57767;42.068;24.752;2023-05-01T04:09:28;98915.03;;;13.37;68.97
70343;BME280;57767;42.068;24.752;2023-05-01T04:10:32;98906.31;;;13.48;68.99
70343;BME280;57767;42.068;24.752;2023-05-01T04:11:34;98912.47;;;13.60;68.44
70343;BME280;57767;42.068;24.752;2023-05-01T04:12:36;98909.03;;;13.71;67.38
70343;BME280;57767;42.068;24.752;2023-05-01T04:13:38;98904.91;;;13.87;67.32
70343;BME280;57767;42.068;24.752;2023-05-01T04:14:39;98908.75;;;14.03;67.30
70343;BME280;57767;42.068;24.752;2023-05-01T04:15:44;98915.38;;;14.23;66.78
70343;BME280;57767;42.068;24.752;2023-05-01T04:16:49;98913.88;;;14.39;66.00
70343;BME280;57767;42.068;24.752;2023-05-01T04:17:51;98918.41;;;14.62;64.81
70343;BME280;57767;42.068;24.752;2023-05-01T04:18:54;98916.44;;;14.81;63.90
70343;BME280;57767;42.068;24.752;2023-05-01T04:19:56;98926.44;;;15.02;63.57
70343;BME280;57767;42.068;24.752;2023-05-01T04:20:58;98918.63;;;15.24;63.01
70343;BME280;57767;42.068;24.752;2023-05-01T04:22:00;98930.72;;;15.43;60.09
70343;BME280;57767;42.068;24.752;2023-05-01T04:23:02;98922.72;;;15.55;59.78
70343;BME280;57767;42.068;24.752;2023-05-01T04:24:04;98929.28;;;15.64;61.33
70343;BME280;57767;42.068;24.752;2023-05-01T04:25:06;98927.84;;;15.73;59.98
70343;BME280;57767;42.068;24.752;2023-05-01T04:26:09;98931.47;;;15.84;59.76
70343;BME280;57767;42.068;24.752;2023-05-01T04:27:11;98934.56;;;15.92;59.60
70343;BME280;57767;42.068;24.752;2023-05-01T04:28:12;98935.78;;;16.01;59.44
70343;BME280;57767;42.068;24.752;2023-05-01T04:29:14;98940.69;;;16.09;58.85
70343;BME280;57767;42.068;24.752;2023-05-01T04:30:16;98938.72;;;16.17;56.64
70343;BME280;57767;42.068;24.752;2023-05-01T04:31:18;98936.19;;;16.27;56.90
70343;BME280;57767;42.068;24.752;2023-05-01T04:32:19;98935.47;;;16.31;56.99
70343;BME280;57767;42.068;24.752;2023-05-01T04:33:22;98943.31;;;16.38;57.23
70343;BME280;57767;42.068;24.752;2023-05-01T04:34:24;98941.84;;;16.47;57.37
70343;BME280;57767;42.068;24.752;2023-05-01T04:35:29;98936.16;;;16.60;57.82
70343;BME280;57767;42.068;24.752;2023-05-01T04:36:31;98931.03;;;16.70;57.20
70343;BME280;57767;42.068;24.752;2023-05-01T04:37:33;98930.97;;;16.87;58.39
70343;BME280;57767;42.068;24.752;2023-05-01T04:38:36;98937.56;;;17.01;56.04
70343;BME280;57767;42.068;24.752;2023-05-01T04:39:38;98939.81;;;17.09;55.35
70343;BME280;57767;42.068;24.752;2023-05-01T04:40:40;98940.88;;;17.30;56.18
70343;BME280;57767;42.068;24.752;2023-05-01T04:41:42;98941.88;;;17.51;56.25
70343;BME280;57767;42.068;24.752;2023-05-01T04:42:43;98941.84;;;17.68;55.07
70343;BME280;57767;42.068;24.752;2023-05-01T04:43:46;98943.91;;;17.87;54.32
70343;BME280;57767;42.068;24.752;2023-05-01T04:44:48;98945.34;;;18.00;53.50
70343;BME280;57767;42.068;24.752;2023-05-01T04:45:49;98939.59;;;18.13;54.19
70343;BME280;57767;42.068;24.752;2023-05-01T04:46:51;98949.94;;;18.37;54.57
70343;BME280;57767;42.068;24.752;2023-05-01T04:47:53;98946.78;;;18.45;53.27
70343;BME280;57767;42.068;24.752;2023-05-01T04:48:55;98958.38;;;18.55;52.83
70343;BME280;57767;42.068;24.752;2023-05-01T04:49:57;98953.09;;;18.66;53.33
70343;BME280;57767;42.068;24.752;2023-05-01T04:50:59;98947.00;;;18.75;53.27
70343;BME280;57767;42.068;24.752;2023-05-01T04:52:00;98948.16;;;18.84;52.25
70343;BME280;57767;42.068;24.752;2023-05-01T04:53:02;98950.13;;;18.99;51.44
70343;BME280;57767;42.068;24.752;2023-05-01T04:54:04;98952.00;;;19.04;51.83
70343;BME280;57767;42.068;24.752;2023-05-01T04:55:06;98959.53;;;19.17;50.32
70343;BME280;57767;42.068;24.752;2023-05-01T04:56:08;98955.84;;;19.28;50.77
70343;BME280;57767;42.068;24.752;2023-05-01T04:57:10;98949.72;;;19.32;51.34
70343;BME280;57767;42.068;24.752;2023-05-01T04:58:12;98961.78;;;19.40;49.71
70343;BME280;57767;42.068;24.752;2023-05-01T04:59:13;98962.88;;;19.44;50.66
70343;BME280;57767;42.068;24.752;2023-05-01T05:00:15;98962.03;;;19.39;49.10
70343;BME280;57767;42.068;24.752;2023-05-01T05:01:19;98963.94;;;19.43;49.28
70343;BME280;57767;42.068;24.752;2023-05-01T05:02:21;98962.94;;;19.49;50.94
70343;BME280;57767;42.068;24.752;2023-05-01T05:03:23;98961.91;;;19.60;50.67
70343;BME280;57767;42.068;24.752;2023-05-01T05:04:24;98960.59;;;19.73;49.09
70343;BME280;57767;42.068;24.752;2023-05-01T05:05:26;98961.63;;;19.67;48.23
70343;BME280;57767;42.068;24.752;2023-05-01T05:06:28;98959.22;;;19.71;48.54
70343;BME280;57767;42.068;24.752;2023-05-01T05:07:30;98960.06;;;19.81;47.69
70343;BME280;57767;42.068;24.752;2023-05-01T05:08:31;98968.91;;;20.02;48.35
70343;BME280;57767;42.068;24.752;2023-05-01T05:09:33;98957.97;;;20.19;47.68
70343;BME280;57767;42.068;24.752;2023-05-01T05:10:35;98961.44;;;20.24;47.57
70343;BME280;57767;42.068;24.752;2023-05-01T05:11:37;98969.78;;;20.43;46.99
70343;BME280;57767;42.068;24.752;2023-05-01T05:12:38;98970.84;;;20.62;46.53
70343;BME280;57767;42.068;24.752;2023-05-01T05:13:40;98953.94;;;20.77;46.73
70343;BME280;57767;42.068;24.752;2023-05-01T05:14:42;98970.25;;;21.01;47.37
70343;BME280;57767;42.068;24.752;2023-05-01T05:15:44;98972.84;;;21.16;45.11
70343;BME280;57767;42.068;24.752;2023-05-01T05:16:46;98966.44;;;21.27;45.28
70343;BME280;57767;42.068;24.752;2023-05-01T05:17:48;98977.94;;;21.38;44.78
70343;BME280;57767;42.068;24.752;2023-05-01T05:18:49;98973.84;;;21.51;44.76
70343;BME280;57767;42.068;24.752;2023-05-01T05:19:51;98972.16;;;21.65;43.54
70343;BME280;57767;42.068;24.752;2023-05-01T05:20:53;98969.31;;;21.90;44.19
70343;BME280;57767;42.068;24.752;2023-05-01T05:21:55;98948.66;;;21.80;43.75
70343;BME280;57767;42.068;24.752;2023-05-01T05:22:57;98971.63;;;22.12;42.05
70343;BME280;57767;42.068;24.752;2023-05-01T05:23:59;98978.19;;;22.30;42.13
70343;BME280;57767;42.068;24.752;2023-05-01T05:25:01;98966.47;;;22.49;42.40
70343;BME280;57767;42.068;24.752;2023-05-01T05:26:04;98966.09;;;22.61;41.35
70343;BME280;57767;42.068;24.752;2023-05-01T05:27:06;98973.50;;;22.79;41.26
70343;BME280;57767;42.068;24.752;2023-05-01T05:28:08;98972.47;;;22.99;42.43
70343;BME280;57767;42.068;24.752;2023-05-01T05:29:10;98974.59;;;23.02;39.04
70343;BME280;57767;42.068;24.752;2023-05-01T05:30:12;98970.13;;;23.16;40.76
70343;BME280;57767;42.068;24.752;2023-05-01T05:31:14;98974.19;;;23.38;39.46
70343;BME280;57767;42.068;24.752;2023-05-01T05:32:16;98975.03;;;23.57;39.06
70343;BME280;57767;42.068;24.752;2023-05-01T05:33:18;98973.16;;;23.76;39.33
70343;BME280;57767;42.068;24.752;2023-05-01T05:34:20;98979.22;;;23.87;37.98
70343;BME280;57767;42.068;24.752;2023-05-01T05:35:22;98974.75;;;23.96;39.46
70343;BME280;57767;42.068;24.752;2023-05-01T05:36:23;98979.00;;;24.02;38.66
70343;BME280;57767;42.068;24.752;2023-05-01T05:37:25;98981.47;;;23.99;39.07
70343;BME280;57767;42.068;24.752;2023-05-01T05:38:27;98965.44;;;23.88;39.46
70343;BME280;57767;42.068;24.752;2023-05-01T05:39:29;98977.25;;;23.92;38.87
70343;BME280;57767;42.068;24.752;2023-05-01T05:40:32;98971.06;;;23.92;38.05
70343;BME280;57767;42.068;24.752;2023-05-01T05:41:33;98981.41;;;24.04;39.52
70343;BME280;57767;42.068;24.752;2023-05-01T05:42:35;98980.66;;;24.17;39.71
70343;BME280;57767;42.068;24.752;2023-05-01T05:43:37;98977.03;;;24.26;38.99
70343;BME280;57767;42.068;24.752;2023-05-01T05:44:39;98989.38;;;24.46;40.03
70343;BME280;57767;42.068;24.752;2023-05-01T05:45:41;98984.53;;;24.62;37.75
70343;BME280;57767;42.068;24.752;2023-05-01T05:46:42;98987.97;;;24.81;37.22